Terminal Aerodrome Forecast
Issued by NWS Cleveland, OH

Home | Current Version | Previous Version | Text Only | Print | Product List | Glossary Off
Versions: 1 2 3 4 5 6 7 8 9 10 11 12

000
FTUS41 KCLE 261738
TAFMFD
TAF
KMFD 261738Z 2618/2718 VRB05KT P6SM VCSH BKN025 OVC100
      TEMPO 2618/2620 01008KT 4SM -SHRA BKN025
     FM262000 35008KT P6SM SCT035
     FM270100 VRB02KT P6SM BKN200
     FM271500 02007KT P6SM SKC=

USA.gov is the U.S. government's official web portal to all federal, state and local government web resources and services.